sensor_id;sensor_type;location;lat;lon;timestamp;temperature;humidity
61392;DHT22;47261;52.892;5.738;2023-07-08T00:02:12;19.00;88.40
61392;DHT22;47261;52.892;5.738;2023-07-08T00:04:39;19.00;88.50
61392;DHT22;47261;52.892;5.738;2023-07-08T00:07:05;18.90;88.60
61392;DHT22;47261;52.892;5.738;2023-07-08T00:09:31;18.90;88.70
61392;DHT22;47261;52.892;5.738;2023-07-08T00:11:57;18.90;88.90
61392;DHT22;47261;52.892;5.738;2023-07-08T00:14:23;18.90;88.90
61392;DHT22;47261;52.892;5.738;2023-07-08T00:16:49;18.90;89.10
61392;DHT22;47261;52.892;5.738;2023-07-08T00:19:17;18.80;89.20
61392;DHT22;47261;52.892;5.738;2023-07-08T00:21:50;18.80;89.30
61392;DHT22;47261;52.892;5.738;2023-07-08T00:24:17;18.80;89.30
61392;DHT22;47261;52.892;5.738;2023-07-08T00:26:42;18.80;89.40
61392;DHT22;47261;52.892;5.738;2023-07-08T00:29:12;18.70;89.40
61392;DHT22;47261;52.892;5.738;2023-07-08T00:31:38;18.70;89.50
61392;DHT22;47261;52.892;5.738;2023-07-08T00:34:03;18.70;89.60
61392;DHT22;47261;52.892;5.738;2023-07-08T00:36:29;18.70;89.60
61392;DHT22;47261;52.892;5.738;2023-07-08T00:38:56;18.60;89.70
61392;DHT22;47261;52.892;5.738;2023-07-08T00:43:59;18.60;90.00
61392;DHT22;47261;52.892;5.738;2023-07-08T00:51:28;18.50;90.10
61392;DHT22;47261;52.892;5.738;2023-07-08T00:53:54;18.50;90.10
61392;DHT22;47261;52.892;5.738;2023-07-08T00:56:36;18.50;90.20
61392;DHT22;47261;52.892;5.738;2023-07-08T00:59:08;18.40;90.20
61392;DHT22;47261;52.892;5.738;2023-07-08T01:01:38;18.40;90.30
61392;DHT22;47261;52.892;5.738;2023-07-08T01:04:20;18.40;90.30
61392;DHT22;47261;52.892;5.738;2023-07-08T01:06:50;18.40;90.40
61392;DHT22;47261;52.892;5.738;2023-07-08T01:09:26;18.30;90.40
61392;DHT22;47261;52.892;5.738;2023-07-08T01:11:55;18.30;90.50
61392;DHT22;47261;52.892;5.738;2023-07-08T01:14:22;18.30;90.50
61392;DHT22;47261;52.892;5.738;2023-07-08T01:16:48;18.30;90.60
61392;DHT22;47261;52.892;5.738;2023-07-08T01:19:17;18.20;90.60
61392;DHT22;47261;52.892;5.738;2023-07-08T01:22:05;18.20;90.60
61392;DHT22;47261;52.892;5.738;2023-07-08T01:24:34;18.10;90.70
61392;DHT22;47261;52.892;5.738;2023-07-08T01:27:02;18.10;90.60
61392;DHT22;47261;52.892;5.738;2023-07-08T01:29:28;18.10;90.70
61392;DHT22;47261;52.892;5.738;2023-07-08T01:31:56;18.10;90.70
61392;DHT22;47261;52.892;5.738;2023-07-08T01:34:21;18.00;90.70
61392;DHT22;47261;52.892;5.738;2023-07-08T01:36:51;18.00;90.80
61392;DHT22;47261;52.892;5.738;2023-07-08T01:39:21;18.00;90.80
61392;DHT22;47261;52.892;5.738;2023-07-08T01:41:47;18.00;90.80
61392;DHT22;47261;52.892;5.738;2023-07-08T01:44:30;18.00;90.80
61392;DHT22;47261;52.892;5.738;2023-07-08T01:46:59;18.00;90.90
61392;DHT22;47261;52.892;5.738;2023-07-08T01:49:26;17.90;90.90
61392;DHT22;47261;52.892;5.738;2023-07-08T01:51:52;17.90;90.90
61392;DHT22;47261;52.892;5.738;2023-07-08T01:54:18;17.90;90.90
61392;DHT22;47261;52.892;5.738;2023-07-08T01:56:44;17.90;90.90
61392;DHT22;47261;52.892;5.738;2023-07-08T01:59:09;17.80;91.00
61392;DHT22;47261;52.892;5.738;2023-07-08T02:01:35;17.80;91.00
61392;DHT22;47261;52.892;5.738;2023-07-08T02:04:01;17.80;91.10
61392;DHT22;47261;52.892;5.738;2023-07-08T02:06:26;17.70;91.10
61392;DHT22;47261;52.892;5.738;2023-07-08T02:08:52;17.70;91.20
61392;DHT22;47261;52.892;5.738;2023-07-08T02:11:17;17.70;91.20
61392;DHT22;47261;52.892;5.738;2023-07-08T02:13:43;17.70;91.30
61392;DHT22;47261;52.892;5.738;2023-07-08T02:16:09;17.70;91.40
61392;DHT22;47261;52.892;5.738;2023-07-08T02:18:34;17.70;91.40
61392;DHT22;47261;52.892;5.738;2023-07-08T02:21:00;17.70;91.50
61392;DHT22;47261;52.892;5.738;2023-07-08T02:23:26;17.70;91.50
61392;DHT22;47261;52.892;5.738;2023-07-08T02:25:53;17.70;91.50
61392;DHT22;47261;52.892;5.738;2023-07-08T02:28:19;17.70;91.60
61392;DHT22;47261;52.892;5.738;2023-07-08T02:30:44;17.70;91.60
61392;DHT22;47261;52.892;5.738;2023-07-08T02:33:12;17.70;91.60
61392;DHT22;47261;52.892;5.738;2023-07-08T02:35:38;17.70;91.60
61392;DHT22;47261;52.892;5.738;2023-07-08T02:38:04;17.70;91.60
61392;DHT22;47261;52.892;5.738;2023-07-08T02:40:30;17.70;91.60
61392;DHT22;47261;52.892;5.738;2023-07-08T02:42:55;17.70;91.60
61392;DHT22;47261;52.892;5.738;2023-07-08T02:45:21;17.70;91.70
61392;DHT22;47261;52.892;5.738;2023-07-08T02:47:47;17.70;91.70
61392;DHT22;47261;52.892;5.738;2023-07-08T02:50:12;17.70;91.70
61392;DHT22;47261;52.892;5.738;2023-07-08T02:52:38;17.70;91.60
61392;DHT22;47261;52.892;5.738;2023-07-08T02:55:05;17.70;91.60
61392;DHT22;47261;52.892;5.738;2023-07-08T02:57:31;17.70;91.60
61392;DHT22;47261;52.892;5.738;2023-07-08T02:59:56;17.70;91.70
61392;DHT22;47261;52.892;5.738;2023-07-08T03:02:22;17.70;91.70
61392;DHT22;47261;52.892;5.738;2023-07-08T03:04:48;17.70;91.70
61392;DHT22;47261;52.892;5.738;2023-07-08T03:07:16;17.70;91.60
61392;DHT22;47261;52.892;5.738;2023-07-08T03:09:42;17.70;91.60
61392;DHT22;47261;52.892;5.738;2023-07-08T03:12:09;17.70;91.70
61392;DHT22;47261;52.892;5.738;2023-07-08T03:14:35;17.70;91.70
61392;DHT22;47261;52.892;5.738;2023-07-08T03:17:02;17.70;91.70
61392;DHT22;47261;52.892;5.738;2023-07-08T03:19:27;17.70;91.80
61392;DHT22;47261;52.892;5.738;2023-07-08T03:21:53;17.70;91.80
61392;DHT22;47261;52.892;5.738;2023-07-08T03:24:19;17.70;91.90
61392;DHT22;47261;52.892;5.738;2023-07-08T03:26:45;17.70;91.90
61392;DHT22;47261;52.892;5.738;2023-07-08T03:29:15;17.70;91.90
61392;DHT22;47261;52.892;5.738;2023-07-08T03:31:42;17.70;91.90
61392;DHT22;47261;52.892;5.738;2023-07-08T03:34:12;17.70;91.90
61392;DHT22;47261;52.892;5.738;2023-07-08T03:36:49;17.70;91.90
61392;DHT22;47261;52.892;5.738;2023-07-08T03:39:20;17.80;92.00
61392;DHT22;47261;52.892;5.738;2023-07-08T03:41:47;17.80;92.00
61392;DHT22;47261;52.892;5.738;2023-07-08T03:44:12;17.80;91.90
61392;DHT22;47261;52.892;5.738;2023-07-08T03:46:38;17.80;91.90
61392;DHT22;47261;52.892;5.738;2023-07-08T03:49:05;17.80;92.20
61392;DHT22;47261;52.892;5.738;2023-07-08T03:51:35;17.80;91.90
61392;DHT22;47261;52.892;5.738;2023-07-08T03:54:01;17.80;91.90
61392;DHT22;47261;52.892;5.738;2023-07-08T03:56:27;17.90;92.00
61392;DHT22;47261;52.892;5.738;2023-07-08T03:58:53;17.90;92.00
61392;DHT22;47261;52.892;5.738;2023-07-08T04:01:20;17.90;92.00
61392;DHT22;47261;52.892;5.738;2023-07-08T04:03:47;17.90;91.90
61392;DHT22;47261;52.892;5.738;2023-07-08T04:06:13;18.00;91.90
61392;DHT22;47261;52.892;5.738;2023-07-08T04:08:39;18.00;91.80
61392;DHT22;47261;52.892;5.738;2023-07-08T04:11:05;18.00;91.80
61392;DHT22;47261;52.892;5.738;2023-07-08T04:13:32;18.10;91.80
61392;DHT22;47261;52.892;5.738;2023-07-08T04:16:01;18.10;91.70
61392;DHT22;47261;52.892;5.738;2023-07-08T04:18:27;18.10;91.60
61392;DHT22;47261;52.892;5.738;2023-07-08T04:20:53;18.10;91.50
61392;DHT22;47261;52.892;5.738;2023-07-08T04:23:19;18.10;91.50
61392;DHT22;47261;52.892;5.738;2023-07-08T04:25:47;18.20;91.50
61392;DHT22;47261;52.892;5.738;2023-07-08T04:28:13;18.10;91.40
61392;DHT22;47261;52.892;5.738;2023-07-08T04:30:38;18.20;91.50
61392;DHT22;47261;52.892;5.738;2023-07-08T04:33:11;18.10;91.50
61392;DHT22;47261;52.892;5.738;2023-07-08T04:35:38;18.10;91.50
61392;DHT22;47261;52.892;5.738;2023-07-08T04:38:05;18.10;91.50
61392;DHT22;47261;52.892;5.738;2023-07-08T04:40:35;18.10;91.50
61392;DHT22;47261;52.892;5.738;2023-07-08T04:43:06;18.10;91.50
61392;DHT22;47261;52.892;5.738;2023-07-08T04:45:32;18.00;91.50
61392;DHT22;47261;52.892;5.738;2023-07-08T04:47:58;18.00;91.50
61392;DHT22;47261;52.892;5.738;2023-07-08T04:50:24;18.00;91.60
61392;DHT22;47261;52.892;5.738;2023-07-08T04:52:50;18.00;91.60
61392;DHT22;47261;52.892;5.738;2023-07-08T04:55:16;18.00;91.70
61392;DHT22;47261;52.892;5.738;2023-07-08T04:57:42;18.00;91.80
61392;DHT22;47261;52.892;5.738;2023-07-08T05:00:13;18.00;91.80
61392;DHT22;47261;52.892;5.738;2023-07-08T05:02:41;18.00;91.90
61392;DHT22;47261;52.892;5.738;2023-07-08T05:05:07;18.00;91.90
61392;DHT22;47261;52.892;5.738;2023-07-08T05:07:32;18.00;91.90
61392;DHT22;47261;52.892;5.738;2023-07-08T05:09:58;18.00;91.90
61392;DHT22;47261;52.892;5.738;2023-07-08T05:12:26;18.00;91.90
61392;DHT22;47261;52.892;5.738;2023-07-08T05:14:52;18.10;91.90
61392;DHT22;47261;52.892;5.738;2023-07-08T05:17:17;18.10;92.00
61392;DHT22;47261;52.892;5.738;2023-07-08T05:19:43;18.10;92.00
61392;DHT22;47261;52.892;5.738;2023-07-08T05:22:11;18.20;92.00
61392;DHT22;47261;52.892;5.738;2023-07-08T05:24:37;18.20;92.00
61392;DHT22;47261;52.892;5.738;2023-07-08T05:27:03;18.30;92.00
61392;DHT22;47261;52.892;5.738;2023-07-08T05:29:29;18.30;91.90
61392;DHT22;47261;52.892;5.738;2023-07-08T05:31:55;18.40;91.90
61392;DHT22;47261;52.892;5.738;2023-07-08T05:34:20;18.70;91.60
61392;DHT22;47261;52.892;5.738;2023-07-08T05:36:46;19.10;91.00
61392;DHT22;47261;52.892;5.738;2023-07-08T05:39:11;19.60;90.30
61392;DHT22;47261;52.892;5.738;2023-07-08T05:41:37;19.90;89.40
61392;DHT22;47261;52.892;5.738;2023-07-08T05:44:03;20.20;88.20
61392;DHT22;47261;52.892;5.738;2023-07-08T05:46:29;20.50;87.40
61392;DHT22;47261;52.892;5.738;2023-07-08T05:48:54;20.80;86.60
61392;DHT22;47261;52.892;5.738;2023-07-08T05:51:20;20.90;85.70
61392;DHT22;47261;52.892;5.738;2023-07-08T05:53:46;21.10;85.20
61392;DHT22;47261;52.892;5.738;2023-07-08T05:56:12;21.30;84.80
61392;DHT22;47261;52.892;5.738;2023-07-08T05:58:37;21.40;84.10
61392;DHT22;47261;52.892;5.738;2023-07-08T06:01:03;21.60;83.60
61392;DHT22;47261;52.892;5.738;2023-07-08T06:03:29;21.80;83.10
61392;DHT22;47261;52.892;5.738;2023-07-08T06:05:55;21.90;82.70
61392;DHT22;47261;52.892;5.738;2023-07-08T06:08:21;22.00;82.50
61392;DHT22;47261;52.892;5.738;2023-07-08T06:10:46;22.00;82.00
61392;DHT22;47261;52.892;5.738;2023-07-08T06:13:12;22.10;81.70
61392;DHT22;47261;52.892;5.738;2023-07-08T06:15:39;22.00;82.00
61392;DHT22;47261;52.892;5.738;2023-07-08T06:18:05;21.90;82.10
61392;DHT22;47261;52.892;5.738;2023-07-08T06:20:30;21.80;81.90
61392;DHT22;47261;52.892;5.738;2023-07-08T06:22:56;21.70;82.20
61392;DHT22;47261;52.892;5.738;2023-07-08T06:25:22;21.60;82.50
61392;DHT22;47261;52.892;5.738;2023-07-08T06:27:47;21.50;82.70
61392;DHT22;47261;52.892;5.738;2023-07-08T06:30:13;21.40;83.20
61392;DHT22;47261;52.892;5.738;2023-07-08T06:32:39;21.30;83.70
61392;DHT22;47261;52.892;5.738;2023-07-08T06:35:05;21.20;84.10
61392;DHT22;47261;52.892;5.738;2023-07-08T06:37:30;21.20;84.30
61392;DHT22;47261;52.892;5.738;2023-07-08T06:39:56;21.20;84.20
61392;DHT22;47261;52.892;5.738;2023-07-08T06:42:22;21.20;84.10
61392;DHT22;47261;52.892;5.738;2023-07-08T06:44:48;21.20;84.10
61392;DHT22;47261;52.892;5.738;2023-07-08T06:47:18;21.20;84.10
61392;DHT22;47261;52.892;5.738;2023-07-08T06:49:45;21.30;84.20
61392;DHT22;47261;52.892;5.738;2023-07-08T06:52:11;21.40;84.10
61392;DHT22;47261;52.892;5.738;2023-07-08T06:54:37;21.50;84.00
61392;DHT22;47261;52.892;5.738;2023-07-08T06:57:02;21.60;83.80
61392;DHT22;47261;52.892;5.738;2023-07-08T06:59:28;21.70;83.70
61392;DHT22;47261;52.892;5.738;2023-07-08T07:01:54;21.70;84.00
61392;DHT22;47261;52.892;5.738;2023-07-08T07:04:20;21.70;84.30
61392;DHT22;47261;52.892;5.738;2023-07-08T07:06:45;21.80;84.40
61392;DHT22;47261;52.892;5.738;2023-07-08T07:09:11;21.80;84.20
61392;DHT22;47261;52.892;5.738;2023-07-08T07:11:37;21.90;84.10
61392;DHT22;47261;52.892;5.738;2023-07-08T07:14:02;22.00;83.90
61392;DHT22;47261;52.892;5.738;2023-07-08T07:16:28;22.10;83.90
61392;DHT22;47261;52.892;5.738;2023-07-08T07:18:54;22.20;84.00
61392;DHT22;47261;52.892;5.738;2023-07-08T07:21:20;22.40;83.90
61392;DHT22;47261;52.892;5.738;2023-07-08T07:23:46;22.60;83.50
61392;DHT22;47261;52.892;5.738;2023-07-08T07:26:12;22.70;82.60
61392;DHT22;47261;52.892;5.738;2023-07-08T07:28:38;22.70;82.30
61392;DHT22;47261;52.892;5.738;2023-07-08T07:31:03;22.80;82.40
61392;DHT22;47261;52.892;5.738;2023-07-08T07:33:31;22.90;82.00
61392;DHT22;47261;52.892;5.738;2023-07-08T07:35:58;22.90;81.70
61392;DHT22;47261;52.892;5.738;2023-07-08T07:38:23;22.90;81.40
61392;DHT22;47261;52.892;5.738;2023-07-08T07:40:54;22.90;81.50
61392;DHT22;47261;52.892;5.738;2023-07-08T07:43:20;23.00;82.00
61392;DHT22;47261;52.892;5.738;2023-07-08T07:45:52;23.10;81.90
61392;DHT22;47261;52.892;5.738;2023-07-08T07:48:19;23.20;81.60
61392;DHT22;47261;52.892;5.738;2023-07-08T07:50:46;23.20;81.40
61392;DHT22;47261;52.892;5.738;2023-07-08T07:53:12;23.30;81.40
61392;DHT22;47261;52.892;5.738;2023-07-08T07:55:38;23.30;81.20
61392;DHT22;47261;52.892;5.738;2023-07-08T07:58:04;23.40;81.10
61392;DHT22;47261;52.892;5.738;2023-07-08T08:00:30;23.50;81.10
61392;DHT22;47261;52.892;5.738;2023-07-08T08:02:56;23.60;80.70
61392;DHT22;47261;52.892;5.738;2023-07-08T08:05:22;23.80;80.40
61392;DHT22;47261;52.892;5.738;2023-07-08T08:07:48;23.90;80.10
61392;DHT22;47261;52.892;5.738;2023-07-08T08:10:14;24.10;79.80
61392;DHT22;47261;52.892;5.738;2023-07-08T08:12:40;24.10;79.80
61392;DHT22;47261;52.892;5.738;2023-07-08T08:15:06;24.20;79.80
61392;DHT22;47261;52.892;5.738;2023-07-08T08:17:32;24.30;79.90
61392;DHT22;47261;52.892;5.738;2023-07-08T08:19:57;24.30;79.40
61392;DHT22;47261;52.892;5.738;2023-07-08T08:22:23;24.30;79.30
61392;DHT22;47261;52.892;5.738;2023-07-08T08:24:49;24.30;79.30
61392;DHT22;47261;52.892;5.738;2023-07-08T08:27:15;24.40;79.40
61392;DHT22;47261;52.892;5.738;2023-07-08T08:29:41;24.50;78.80
61392;DHT22;47261;52.892;5.738;2023-07-08T08:32:07;24.60;77.20
61392;DHT22;47261;52.892;5.738;2023-07-08T08:34:32;24.60;76.10
61392;DHT22;47261;52.892;5.738;2023-07-08T08:36:58;24.70;75.60
61392;DHT22;47261;52.892;5.738;2023-07-08T08:39:24;24.80;75.50
61392;DHT22;47261;52.892;5.738;2023-07-08T08:41:55;25.00;74.80
61392;DHT22;47261;52.892;5.738;2023-07-08T08:44:42;25.00;73.70
61392;DHT22;47261;52.892;5.738;2023-07-08T08:47:21;25.20;73.10
61392;DHT22;47261;52.892;5.738;2023-07-08T08:49:57;25.40;73.10
61392;DHT22;47261;52.892;5.738;2023-07-08T08:52:25;25.50;71.80
61392;DHT22;47261;52.892;5.738;2023-07-08T08:54:51;25.60;71.50
61392;DHT22;47261;52.892;5.738;2023-07-08T08:57:51;25.60;71.20
61392;DHT22;47261;52.892;5.738;2023-07-08T09:00:25;25.60;71.10
61392;DHT22;47261;52.892;5.738;2023-07-08T09:03:07;25.60;71.00
61392;DHT22;47261;52.892;5.738;2023-07-08T09:05:36;25.70;70.60
61392;DHT22;47261;52.892;5.738;2023-07-08T09:08:16;25.70;71.00
61392;DHT22;47261;52.892;5.738;2023-07-08T09:10:45;25.80;70.70
61392;DHT22;47261;52.892;5.738;2023-07-08T09:13:25;25.90;70.90
61392;DHT22;47261;52.892;5.738;2023-07-08T09:16:44;26.00;71.00
61392;DHT22;47261;52.892;5.738;2023-07-08T09:21:25;26.20;70.80
61392;DHT22;47261;52.892;5.738;2023-07-08T09:23:59;26.40;71.00
61392;DHT22;47261;52.892;5.738;2023-07-08T09:26:27;26.60;71.20
61392;DHT22;47261;52.892;5.738;2023-07-08T09:28:54;26.90;70.40
61392;DHT22;47261;52.892;5.738;2023-07-08T09:31:28;27.20;70.40
61392;DHT22;47261;52.892;5.738;2023-07-08T09:34:12;27.50;69.10
61392;DHT22;47261;52.892;5.738;2023-07-08T09:36:44;27.80;68.40
61392;DHT22;47261;52.892;5.738;2023-07-08T09:39:12;28.00;67.30
61392;DHT22;47261;52.892;5.738;2023-07-08T09:41:39;28.20;66.60
61392;DHT22;47261;52.892;5.738;2023-07-08T09:46:42;28.50;65.90
61392;DHT22;47261;52.892;5.738;2023-07-08T09:49:15;28.70;66.10
61392;DHT22;47261;52.892;5.738;2023-07-08T09:51:41;28.70;65.20
61392;DHT22;47261;52.892;5.738;2023-07-08T09:54:08;29.00;65.40
61392;DHT22;47261;52.892;5.738;2023-07-08T09:56:34;29.10;65.30
61392;DHT22;47261;52.892;5.738;2023-07-08T09:59:01;29.30;65.30
61392;DHT22;47261;52.892;5.738;2023-07-08T10:01:27;29.50;64.10
61392;DHT22;47261;52.892;5.738;2023-07-08T10:03:59;29.70;62.80
61392;DHT22;47261;52.892;5.738;2023-07-08T10:06:28;29.80;61.60
61392;DHT22;47261;52.892;5.738;2023-07-08T10:08:55;29.70;61.00
61392;DHT22;47261;52.892;5.738;2023-07-08T10:13:54;30.00;61.70
61392;DHT22;47261;52.892;5.738;2023-07-08T10:16:26;30.00;61.20
61392;DHT22;47261;52.892;5.738;2023-07-08T10:18:52;30.10;60.60
61392;DHT22;47261;52.892;5.738;2023-07-08T10:24:41;30.30;60.30
61392;DHT22;47261;52.892;5.738;2023-07-08T10:49:26;31.40;58.10
61392;DHT22;47261;52.892;5.738;2023-07-08T10:52:01;31.70;58.40
61392;DHT22;47261;52.892;5.738;2023-07-08T10:57:24;32.10;57.20
61392;DHT22;47261;52.892;5.738;2023-07-08T11:00:07;32.10;55.80
61392;DHT22;47261;52.892;5.738;2023-07-08T11:03:07;32.10;55.00
61392;DHT22;47261;52.892;5.738;2023-07-08T11:05:50;32.00;55.20
61392;DHT22;47261;52.892;5.738;2023-07-08T11:08:28;32.00;56.10
61392;DHT22;47261;52.892;5.738;2023-07-08T11:13:47;32.10;54.80
61392;DHT22;47261;52.892;5.738;2023-07-08T11:16:31;32.00;54.10
61392;DHT22;47261;52.892;5.738;2023-07-08T11:19:07;32.00;53.60
61392;DHT22;47261;52.892;5.738;2023-07-08T11:21:42;32.00;53.80
61392;DHT22;47261;52.892;5.738;2023-07-08T11:27:00;32.00;52.50
61392;DHT22;47261;52.892;5.738;2023-07-08T11:29:37;32.00;52.20
61392;DHT22;47261;52.892;5.738;2023-07-08T11:32:05;32.10;52.50
61392;DHT22;47261;52.892;5.738;2023-07-08T11:34:33;32.30;52.10
61392;DHT22;47261;52.892;5.738;2023-07-08T11:36:59;32.30;51.90
61392;DHT22;47261;52.892;5.738;2023-07-08T11:39:57;32.40;52.30
61392;DHT22;47261;52.892;5.738;2023-07-08T11:45:26;32.50;51.70
61392;DHT22;47261;52.892;5.738;2023-07-08T11:47:52;32.60;52.10
61392;DHT22;47261;52.892;5.738;2023-07-08T11:50:28;32.60;52.60
61392;DHT22;47261;52.892;5.738;2023-07-08T11:53:01;32.80;52.40
61392;DHT22;47261;52.892;5.738;2023-07-08T11:58:08;32.90;51.30
61392;DHT22;47261;52.892;5.738;2023-07-08T12:00:58;33.00;52.30
61392;DHT22;47261;52.892;5.738;2023-07-08T12:03:37;33.20;51.70
61392;DHT22;47261;52.892;5.738;2023-07-08T12:08:52;33.40;50.80
61392;DHT22;47261;52.892;5.738;2023-07-08T12:11:18;33.40;51.00
61392;DHT22;47261;52.892;5.738;2023-07-08T12:13:44;33.40;51.20
61392;DHT22;47261;52.892;5.738;2023-07-08T12:16:11;33.40;51.70
61392;DHT22;47261;52.892;5.738;2023-07-08T12:18:39;33.30;51.30
61392;DHT22;47261;52.892;5.738;2023-07-08T12:21:12;33.20;51.30
61392;DHT22;47261;52.892;5.738;2023-07-08T12:23:44;33.00;51.10
61392;DHT22;47261;52.892;5.738;2023-07-08T12:26:11;32.80;51.20
61392;DHT22;47261;52.892;5.738;2023-07-08T12:28:38;32.80;51.60
61392;DHT22;47261;52.892;5.738;2023-07-08T12:31:17;32.60;52.00
61392;DHT22;47261;52.892;5.738;2023-07-08T12:33:44;32.50;51.50
61392;DHT22;47261;52.892;5.738;2023-07-08T12:36:20;32.50;51.30
61392;DHT22;47261;52.892;5.738;2023-07-08T12:38:47;32.40;52.40
61392;DHT22;47261;52.892;5.738;2023-07-08T12:41:46;32.40;51.80
61392;DHT22;47261;52.892;5.738;2023-07-08T12:44:18;32.30;53.70
61392;DHT22;47261;52.892;5.738;2023-07-08T12:46:45;32.30;52.40
61392;DHT22;47261;52.892;5.738;2023-07-08T12:49:13;32.40;52.50
61392;DHT22;47261;52.892;5.738;2023-07-08T12:51:42;32.50;53.20
61392;DHT22;47261;52.892;5.738;2023-07-08T12:54:09;32.60;53.60
61392;DHT22;47261;52.892;5.738;2023-07-08T12:56:36;32.60;53.10
61392;DHT22;47261;52.892;5.738;2023-07-08T12:59:04;32.70;51.50
61392;DHT22;47261;52.892;5.738;2023-07-08T13:01:33;32.60;51.50
61392;DHT22;47261;52.892;5.738;2023-07-08T13:04:03;32.70;51.60
61392;DHT22;47261;52.892;5.738;2023-07-08T13:06:32;32.70;50.80
61392;DHT22;47261;52.892;5.738;2023-07-08T13:11:34;32.80;53.00
61392;DHT22;47261;52.892;5.738;2023-07-08T13:14:04;32.80;52.30
61392;DHT22;47261;52.892;5.738;2023-07-08T13:16:33;32.80;52.00
61392;DHT22;47261;52.892;5.738;2023-07-08T13:19:00;32.70;52.00
61392;DHT22;47261;52.892;5.738;2023-07-08T13:21:26;32.70;52.70
61392;DHT22;47261;52.892;5.738;2023-07-08T13:23:54;32.60;52.20
61392;DHT22;47261;52.892;5.738;2023-07-08T13:26:26;32.50;52.90
61392;DHT22;47261;52.892;5.738;2023-07-08T13:29:00;32.50;52.50
61392;DHT22;47261;52.892;5.738;2023-07-08T13:31:32;32.40;52.70
61392;DHT22;47261;52.892;5.738;2023-07-08T13:34:09;32.40;52.40
61392;DHT22;47261;52.892;5.738;2023-07-08T13:36:38;32.40;52.00
61392;DHT22;47261;52.892;5.738;2023-07-08T13:39:13;32.30;51.70
61392;DHT22;47261;52.892;5.738;2023-07-08T13:41:43;32.20;52.10
61392;DHT22;47261;52.892;5.738;2023-07-08T13:44:09;32.20;52.10
61392;DHT22;47261;52.892;5.738;2023-07-08T13:51:44;32.40;54.40
61392;DHT22;47261;52.892;5.738;2023-07-08T13:54:21;32.50;53.80
61392;DHT22;47261;52.892;5.738;2023-07-08T13:56:47;32.70;52.70
61392;DHT22;47261;52.892;5.738;2023-07-08T13:59:25;32.80;52.80
61392;DHT22;47261;52.892;5.738;2023-07-08T14:01:55;33.00;52.70
61392;DHT22;47261;52.892;5.738;2023-07-08T14:04:33;33.20;51.80
61392;DHT22;47261;52.892;5.738;2023-07-08T14:07:00;33.20;51.40
61392;DHT22;47261;52.892;5.738;2023-07-08T14:09:25;33.40;51.70
61392;DHT22;47261;52.892;5.738;2023-07-08T14:11:52;33.40;51.50
61392;DHT22;47261;52.892;5.738;2023-07-08T14:14:18;33.30;52.00
61392;DHT22;47261;52.892;5.738;2023-07-08T14:16:46;33.30;52.70
61392;DHT22;47261;52.892;5.738;2023-07-08T14:19:21;33.40;52.50
61392;DHT22;47261;52.892;5.738;2023-07-08T14:22:01;33.60;52.20
61392;DHT22;47261;52.892;5.738;2023-07-08T14:24:27;33.60;53.30
61392;DHT22;47261;52.892;5.738;2023-07-08T14:26:53;33.60;52.80
61392;DHT22;47261;52.892;5.738;2023-07-08T14:29:19;33.60;51.50
61392;DHT22;47261;52.892;5.738;2023-07-08T14:31:45;33.60;52.10
61392;DHT22;47261;52.892;5.738;2023-07-08T14:34:26;33.60;51.40
61392;DHT22;47261;52.892;5.738;2023-07-08T14:36:53;33.50;52.80
61392;DHT22;47261;52.892;5.738;2023-07-08T14:39:19;33.40;52.50
61392;DHT22;47261;52.892;5.738;2023-07-08T14:41:47;33.40;51.50
61392;DHT22;47261;52.892;5.738;2023-07-08T14:44:25;33.40;52.70
61392;DHT22;47261;52.892;5.738;2023-07-08T14:46:51;33.30;52.60
61392;DHT22;47261;52.892;5.738;2023-07-08T14:49:19;33.20;52.50
61392;DHT22;47261;52.892;5.738;2023-07-08T14:51:45;33.20;52.10
61392;DHT22;47261;52.892;5.738;2023-07-08T14:54:11;33.30;52.40
61392;DHT22;47261;52.892;5.738;2023-07-08T14:56:38;33.40;52.00
61392;DHT22;47261;52.892;5.738;2023-07-08T14:59:04;33.50;51.90
61392;DHT22;47261;52.892;5.738;2023-07-08T15:01:30;33.60;51.00
61392;DHT22;47261;52.892;5.738;2023-07-08T15:03:57;33.70;51.10
61392;DHT22;47261;52.892;5.738;2023-07-08T15:06:24;33.60;50.90
61392;DHT22;47261;52.892;5.738;2023-07-08T15:08:50;33.60;50.40
61392;DHT22;47261;52.892;5.738;2023-07-08T15:11:16;33.60;50.50
61392;DHT22;47261;52.892;5.738;2023-07-08T15:13:43;33.50;50.80
61392;DHT22;47261;52.892;5.738;2023-07-08T15:16:15;33.40;50.20
61392;DHT22;47261;52.892;5.738;2023-07-08T15:18:42;33.30;49.90
61392;DHT22;47261;52.892;5.738;2023-07-08T15:21:11;33.30;51.00
61392;DHT22;47261;52.892;5.738;2023-07-08T15:23:38;33.30;52.10
61392;DHT22;47261;52.892;5.738;2023-07-08T15:26:03;33.20;52.10
61392;DHT22;47261;52.892;5.738;2023-07-08T15:28:49;33.10;52.70
61392;DHT22;47261;52.892;5.738;2023-07-08T15:31:21;33.10;53.00
61392;DHT22;47261;52.892;5.738;2023-07-08T15:33:51;33.10;53.10
61392;DHT22;47261;52.892;5.738;2023-07-08T15:36:17;33.10;52.50
61392;DHT22;47261;52.892;5.738;2023-07-08T15:38:43;33.00;52.70
61392;DHT22;47261;52.892;5.738;2023-07-08T15:41:20;33.00;51.50
61392;DHT22;47261;52.892;5.738;2023-07-08T15:43:48;32.90;52.70
61392;DHT22;47261;52.892;5.738;2023-07-08T15:46:14;32.90;51.70
61392;DHT22;47261;52.892;5.738;2023-07-08T15:48:40;32.80;51.90
61392;DHT22;47261;52.892;5.738;2023-07-08T15:51:05;32.80;51.90
61392;DHT22;47261;52.892;5.738;2023-07-08T15:53:31;32.80;51.10
61392;DHT22;47261;52.892;5.738;2023-07-08T15:55:57;32.70;51.90
61392;DHT22;47261;52.892;5.738;2023-07-08T15:58:27;32.70;51.50
61392;DHT22;47261;52.892;5.738;2023-07-08T16:00:54;32.70;50.80
61392;DHT22;47261;52.892;5.738;2023-07-08T16:03:25;32.70;51.10
61392;DHT22;47261;52.892;5.738;2023-07-08T16:05:52;32.70;52.40
61392;DHT22;47261;52.892;5.738;2023-07-08T16:08:19;32.70;51.90
61392;DHT22;47261;52.892;5.738;2023-07-08T16:10:51;32.70;51.60
61392;DHT22;47261;52.892;5.738;2023-07-08T16:13:22;32.60;51.70
61392;DHT22;47261;52.892;5.738;2023-07-08T16:15:48;32.50;53.60
61392;DHT22;47261;52.892;5.738;2023-07-08T16:18:14;32.40;53.90
61392;DHT22;47261;52.892;5.738;2023-07-08T16:20:40;32.30;54.40
61392;DHT22;47261;52.892;5.738;2023-07-08T16:23:05;32.30;54.90
61392;DHT22;47261;52.892;5.738;2023-07-08T16:25:37;32.20;54.20
61392;DHT22;47261;52.892;5.738;2023-07-08T16:28:04;32.10;54.30
61392;DHT22;47261;52.892;5.738;2023-07-08T16:30:30;32.20;55.00
61392;DHT22;47261;52.892;5.738;2023-07-08T16:32:56;32.20;55.20
61392;DHT22;47261;52.892;5.738;2023-07-08T16:35:22;32.30;55.80
61392;DHT22;47261;52.892;5.738;2023-07-08T16:37:50;32.50;54.40
61392;DHT22;47261;52.892;5.738;2023-07-08T16:40:20;32.50;53.80
61392;DHT22;47261;52.892;5.738;2023-07-08T16:42:48;32.60;53.80
61392;DHT22;47261;52.892;5.738;2023-07-08T16:45:17;32.60;54.10